Vermontville, New York
Current Conditions -  °F | °C
As of 10:51 PM on Tuesday 25 Nov 2014 (Local Time) from KSLK Reporting Station
Overcast Overcast  
Wind Chill: 23°   Ceiling: 2600
Heat Index: 32°   Visibility: 10mi
Dew Point: 25°   Wind: 12mph
Humidity: 75%   Direction: 240°WSW
Pressure: 30.05"   Gusts: 21mph
Location:  44.45°N, 74.07°W
Report Text: KSLK 260351Z AUTO 24010G18KT 10SM SCT019 BKN026 OVC044 00/M04 A3005 RMK AO2 SLP191 T00001039
Loading
Personal Weather Stations






























Interactive Weather Map New forecast layout! Learn more

10-Day Weather Forecast

Advertisements
Track Severe Weather on mobile